Time;durP1;ratioP1;P1;durP2;ratioP2;P2;SDS_P1;SDS_P2;PMS_P1;PMS_P2;Temp;Humidity;BMP_temperature;BMP_pressure;BME280_temperature;BME280_humidity;BME280_pressure;Samples;Min_cycle;Max_cycle;Signal;HPM_P1;HPM_P2
2022/05/14 00:01:27;;;;;;;8.87;5.13;;;;;;;13.94;61.70;100705.66;5115523;28;20478;-72
2022/05/14 00:03:55;;;;;;;11.70;4.57;;;;;;;13.92;61.52;100704.09;5112109;28;20465;-71
2022/05/14 00:06:25;;;;;;;10.30;6.33;;;;;;;13.84;62.25;100702.19;5119958;28;20546;-73
2022/05/14 00:08:52;;;;;;;7.93;4.90;;;;;;;13.84;61.14;100698.66;5112218;28;20442;-72
2022/05/14 00:14:05;;;;;;;9.13;5.70;;;;;;;14.03;60.65;100701.22;5121061;28;20441;-75
2022/05/14 00:16:33;;;;;;;10.60;5.30;;;;;;;13.91;61.67;100695.19;5119575;28;20550;-74
2022/05/14 00:19:02;;;;;;;10.37;5.97;;;;;;;13.86;61.34;100692.13;5119599;28;20472;-74
2022/05/14 00:21:29;;;;;;;9.17;5.60;;;;;;;13.76;61.11;100688.63;5101884;28;20477;-74
2022/05/14 00:23:58;;;;;;;13.10;5.03;;;;;;;13.76;61.82;100685.94;5120825;28;20438;-74
2022/05/14 00:26:25;;;;;;;9.30;5.50;;;;;;;13.67;61.67;100684.19;5122221;28;20481;-74
2022/05/14 00:28:52;;;;;;;8.30;4.90;;;;;;;13.60;62.22;100685.78;5120148;28;20510;-74
2022/05/14 00:31:19;;;;;;;9.83;5.23;;;;;;;13.47;62.58;100692.34;5115350;28;20477;-74
2022/05/14 00:33:46;;;;;;;12.23;5.73;;;;;;;13.35;63.30;100694.38;5123889;28;20515;-73
2022/05/14 00:36:14;;;;;;;8.40;5.60;;;;;;;13.32;63.35;100697.34;5122961;27;20478;-74
2022/05/14 00:38:41;;;;;;;8.97;6.33;;;;;;;13.19;64.42;100692.28;5118284;28;20447;-73
2022/05/14 00:41:09;;;;;;;8.17;6.53;;;;;;;13.31;63.86;100686.72;5119296;28;20482;-72
2022/05/14 00:43:48;;;;;;;9.30;5.63;;;;;;;13.40;63.54;100688.53;5123521;28;20481;-71
2022/05/14 00:46:18;;;;;;;7.87;6.07;;;;;;;13.45;63.39;100683.56;5123575;28;20477;-71
2022/05/14 00:48:46;;;;;;;8.00;5.90;;;;;;;13.50;63.96;100692.03;5122819;28;20483;-72
2022/05/14 00:51:17;;;;;;;9.67;6.40;;;;;;;13.50;64.31;100686.66;5117085;28;20473;-70
2022/05/14 00:53:47;;;;;;;10.73;6.00;;;;;;;13.64;62.51;100681.78;5124311;28;20446;-69
2022/05/14 00:56:15;;;;;;;13.70;6.10;;;;;;;13.58;63.18;100679.72;5117516;28;20566;-70
2022/05/14 00:58:47;;;;;;;9.50;6.03;;;;;;;13.60;62.90;100680.41;5116955;28;20483;-70
2022/05/14 01:01:14;;;;;;;11.40;6.70;;;;;;;13.59;62.75;100689.44;5122987;28;20503;-71
2022/05/14 01:03:41;;;;;;;10.10;6.20;;;;;;;13.60;63.36;100688.47;5123621;28;20466;-70
2022/05/14 01:06:11;;;;;;;11.37;6.67;;;;;;;13.60;63.12;100701.91;5118012;27;20574;-70
2022/05/14 01:08:40;;;;;;;8.90;6.83;;;;;;;13.58;64.12;100693.16;5109178;28;21005;-70
2022/05/14 01:11:07;;;;;;;12.37;6.30;;;;;;;13.49;63.48;100694.88;5120654;28;20530;-69
2022/05/14 01:13:34;;;;;;;8.77;7.43;;;;;;;13.48;63.51;100693.19;5122407;28;20430;-68
2022/05/14 01:16:03;;;;;;;11.77;6.90;;;;;;;13.47;63.67;100694.16;5120000;28;20485;-69
2022/05/14 01:18:33;;;;;;;11.50;6.73;;;;;;;13.48;63.93;100701.25;5123224;28;20541;-69
2022/05/14 01:21:02;;;;;;;10.93;7.40;;;;;;;13.40;63.98;100698.44;5118522;28;20470;-69
2022/05/14 01:26:27;;;;;;;11.00;7.33;;;;;;;13.42;63.57;100694.63;5123530;28;20941;-70
2022/05/14 01:26:28;;;;;;;10.63;7.53;;;;;;;13.42;64.18;100694.63;5120737;28;20497;-70
2022/05/14 01:28:56;;;;;;;11.20;7.40;;;;;;;13.42;64.15;100691.06;5117753;28;20474;-71
2022/05/14 01:31:23;;;;;;;12.60;7.27;;;;;;;13.30;63.78;100696.63;5122274;27;20484;-70
2022/05/14 01:33:50;;;;;;;13.23;7.70;;;;;;;13.46;63.50;100696.00;5122915;28;20454;-70
2022/05/14 01:36:16;;;;;;;15.90;8.70;;;;;;;13.36;63.81;100693.34;5120975;28;20493;-70
2022/05/14 01:38:44;;;;;;;14.47;8.47;;;;;;;13.28;63.73;100700.44;5117244;28;20487;-70
2022/05/14 01:41:10;;;;;;;11.37;8.10;;;;;;;13.14;63.87;100697.25;5116899;28;22347;-70
2022/05/14 01:43:39;;;;;;;10.70;7.73;;;;;;;13.15;63.87;100695.41;5122790;28;20426;-71
2022/05/14 01:46:06;;;;;;;14.60;7.47;;;;;;;13.04;64.28;100693.75;5121947;27;20478;-71
2022/05/14 01:48:33;;;;;;;11.57;8.40;;;;;;;12.93;64.53;100699.25;5117241;28;20475;-71
2022/05/14 01:51:00;;;;;;;12.90;8.43;;;;;;;12.92;64.61;100697.59;5122454;28;20478;-70
2022/05/14 01:53:27;;;;;;;11.90;7.60;;;;;;;12.83;64.43;100693.94;5123110;28;20441;-69
2022/05/14 01:55:53;;;;;;;9.80;7.83;;;;;;;12.73;64.79;100690.44;5117098;28;21065;-69
2022/05/14 01:58:38;;;;;;;12.23;8.43;;;;;;;12.66;65.28;100692.81;5117132;28;20457;-70
2022/05/14 02:01:12;;;;;;;13.00;7.53;;;;;;;12.65;65.52;100690.28;5122070;28;20496;-70
2022/05/14 02:03:39;;;;;;;13.00;7.67;;;;;;;12.71;65.49;100681.69;5115912;28;20442;-71
2022/05/14 02:06:06;;;;;;;9.90;7.60;;;;;;;12.59;65.57;100686.34;5122397;28;20484;-72
2022/05/14 02:08:33;;;;;;;12.63;8.43;;;;;;;12.42;66.49;100685.22;5122705;28;20455;-71
2022/05/14 02:11:00;;;;;;;10.43;7.83;;;;;;;12.49;66.19;100693.56;5121742;28;20458;-71
2022/05/14 02:13:28;;;;;;;10.17;8.13;;;;;;;12.46;66.25;100685.78;5122843;28;20446;-70
2022/05/14 02:15:55;;;;;;;14.53;8.37;;;;;;;12.38;66.51;100683.81;5114256;28;20481;-71
2022/05/14 02:18:24;;;;;;;13.03;8.63;;;;;;;12.28;67.15;100694.53;5116760;28;20982;-71
2022/05/14 02:20:51;;;;;;;14.20;9.80;;;;;;;12.14;67.79;100693.13;5101874;28;20475;-71
2022/05/14 02:23:18;;;;;;;10.60;8.20;;;;;;;12.13;67.74;100693.25;5117302;28;20477;-70
2022/05/14 02:25:45;;;;;;;14.90;9.77;;;;;;;12.03;68.06;100685.19;5121551;28;20553;-71
2022/05/14 02:28:12;;;;;;;19.87;10.60;;;;;;;12.01;68.04;100677.31;5110404;28;20522;-72
2022/05/14 02:30:38;;;;;;;14.60;9.20;;;;;;;12.08;68.16;100692.81;5121625;28;20462;-71
2022/05/14 02:33:05;;;;;;;14.67;10.40;;;;;;;12.00;68.37;100683.66;5122363;28;20454;-71
2022/05/14 02:35:33;;;;;;;16.70;8.80;;;;;;;12.09;67.98;100692.69;5121317;28;20469;-71
2022/05/14 02:38:00;;;;;;;11.87;8.90;;;;;;;12.03;68.43;100680.72;5121483;28;20743;-71
2022/05/14 02:40:27;;;;;;;13.27;9.17;;;;;;;12.01;68.42;100690.72;5120889;28;20462;-71
2022/05/14 02:42:54;;;;;;;14.73;9.17;;;;;;;12.00;68.73;100689.03;5120759;28;20450;-71
2022/05/14 02:45:21;;;;;;;17.23;8.53;;;;;;;12.05;68.74;100693.97;5116753;28;20445;-71
2022/05/14 02:47:48;;;;;;;15.70;9.57;;;;;;;12.09;68.45;100690.00;5113988;28;20470;-71
2022/05/14 02:50:15;;;;;;;10.40;9.40;;;;;;;12.29;67.73;100690.00;5120090;28;20537;-71
2022/05/14 02:52:44;;;;;;;16.63;9.17;;;;;;;12.30;67.97;100689.03;5122271;28;20481;-71
2022/05/14 02:55:11;;;;;;;14.20;8.80;;;;;;;12.11;68.50;100688.03;5116765;28;20446;-71
2022/05/14 02:57:38;;;;;;;12.60;9.27;;;;;;;12.19;68.72;100700.75;5118481;28;20454;-71
2022/05/14 03:00:08;;;;;;;14.53;8.30;;;;;;;12.36;67.88;100692.00;5118352;28;20547;-72
2022/05/14 03:02:35;;;;;;;17.70;8.80;;;;;;;12.33;67.74;100692.28;5121160;28;20549;-71
2022/05/14 03:05:02;;;;;;;12.87;8.50;;;;;;;12.35;67.97;100695.66;5120168;28;20446;-70
2022/05/14 03:07:29;;;;;;;11.33;8.67;;;;;;;12.30;67.76;100697.91;5113998;27;20475;-71
2022/05/14 03:09:57;;;;;;;17.10;8.07;;;;;;;12.35;67.64;100692.97;5117280;28;21040;-72
2022/05/14 03:12:24;;;;;;;11.83;7.70;;;;;;;12.26;68.13;100696.53;5116920;28;20490;-71
2022/05/14 03:14:50;;;;;;;16.57;9.87;;;;;;;12.20;68.25;100697.06;5121040;28;20450;-71
2022/05/14 03:17:18;;;;;;;15.90;8.53;;;;;;;12.18;68.40;100699.88;5114918;28;21515;-70
2022/05/14 03:19:45;;;;;;;13.63;7.73;;;;;;;12.18;68.55;100694.53;5108703;28;20476;-70
2022/05/14 03:22:12;;;;;;;14.17;8.17;;;;;;;12.25;68.15;100697.50;5120473;28;20473;-71
2022/05/14 03:24:39;;;;;;;13.13;8.30;;;;;;;12.30;68.34;100697.91;5121050;28;20452;-71
2022/05/14 03:27:08;;;;;;;16.57;7.70;;;;;;;12.29;68.31;100698.94;5114413;28;20486;-71
2022/05/14 03:29:35;;;;;;;15.03;8.00;;;;;;;12.25;68.61;100694.81;5110338;28;20457;-71
2022/05/14 03:32:02;;;;;;;11.20;8.27;;;;;;;12.32;68.50;100692.41;5119564;28;20495;-70
2022/05/14 03:34:29;;;;;;;9.40;7.83;;;;;;;12.42;67.95;100696.78;5117776;28;20442;-71
2022/05/14 03:36:55;;;;;;;14.47;8.70;;;;;;;12.40;68.51;100690.72;5118052;28;20465;-71
2022/05/14 03:39:22;;;;;;;12.33;8.50;;;;;;;12.33;68.91;100692.28;5116470;28;20543;-71
2022/05/14 03:41:49;;;;;;;12.63;7.70;;;;;;;12.47;67.84;100692.84;5120009;28;20481;-71
2022/05/14 03:44:17;;;;;;;13.30;7.33;;;;;;;12.65;67.41;100696.50;5118870;28;20430;-71
2022/05/14 03:46:44;;;;;;;10.33;7.83;;;;;;;12.76;67.29;100708.94;5117771;28;20470;-71
2022/05/14 03:49:11;;;;;;;16.37;7.50;;;;;;;12.87;66.97;100716.81;5114852;28;20473;-70
2022/05/14 03:51:37;;;;;;;12.13;7.77;;;;;;;12.73;67.18;100718.09;5116797;28;20475;-70
2022/05/14 03:54:05;;;;;;;14.07;7.47;;;;;;;12.71;67.23;100709.34;5121696;28;20435;-70
2022/05/14 03:56:32;;;;;;;10.53;7.27;;;;;;;12.80;67.13;100707.63;5116926;28;20473;-71
2022/05/14 03:58:59;;;;;;;15.07;8.20;;;;;;;12.79;66.71;100708.63;5120478;28;21078;-71
2022/05/14 04:01:27;;;;;;;9.53;6.27;;;;;;;12.74;66.56;100710.88;5123639;28;20682;-71
2022/05/14 04:03:54;;;;;;;10.67;6.80;;;;;;;12.85;66.44;100718.78;5124715;28;20442;-71
2022/05/14 04:06:21;;;;;;;8.50;6.27;;;;;;;12.82;65.81;100711.84;5124479;28;20503;-71
2022/05/14 04:08:47;;;;;;;11.30;5.40;;;;;;;12.92;65.34;100719.91;5117372;28;20482;-71
2022/05/14 04:11:14;;;;;;;12.73;6.00;;;;;;;12.87;65.37;100715.97;5123766;28;20544;-71
2022/05/14 04:13:41;;;;;;;13.73;6.10;;;;;;;12.97;65.37;100716.78;5122702;28;20930;-71
2022/05/14 04:16:08;;;;;;;11.27;5.93;;;;;;;13.00;64.94;100720.03;5124480;28;20469;-72
2022/05/14 04:18:36;;;;;;;14.03;5.93;;;;;;;13.18;63.99;100712.06;5117874;28;20442;-70
2022/05/14 04:21:03;;;;;;;7.20;5.80;;;;;;;13.15;64.21;100698.91;5117213;28;21033;-73
2022/05/14 04:23:31;;;;;;;13.47;6.03;;;;;;;13.46;63.38;100717.50;5124160;28;20438;-74
2022/05/14 04:25:59;;;;;;;10.60;5.67;;;;;;;13.64;62.66;100719.41;5123983;28;20990;-73
2022/05/14 04:28:27;;;;;;;9.50;5.10;;;;;;;13.66;62.86;100714.72;5117635;28;20768;-72
2022/05/14 04:30:55;;;;;;;14.57;6.50;;;;;;;14.03;61.58;100714.66;5124255;28;20478;-73
2022/05/14 04:33:21;;;;;;;10.83;5.77;;;;;;;14.23;60.71;100720.72;5124221;28;20426;-75
2022/05/14 04:35:50;;;;;;;10.73;5.70;;;;;;;14.17;60.45;100720.50;5114935;28;20475;-76
2022/05/14 04:38:17;;;;;;;10.47;5.90;;;;;;;14.08;61.07;100722.28;5124096;28;20457;-77
2022/05/14 04:40:45;;;;;;;9.43;5.23;;;;;;;14.11;61.07;100730.00;5115541;28;20507;-73
2022/05/14 04:43:13;;;;;;;13.63;5.67;;;;;;;14.28;60.44;100728.34;5124019;28;20483;-74
2022/05/14 04:45:40;;;;;;;14.33;6.30;;;;;;;15.04;58.86;100725.13;5121109;28;20535;-78
2022/05/14 04:48:08;;;;;;;11.40;5.20;;;;;;;15.38;57.64;100726.16;5122352;28;20446;-73
2022/05/14 04:50:35;;;;;;;7.80;4.90;;;;;;;15.73;56.61;100730.56;5113475;28;20478;-79
2022/05/14 04:53:03;;;;;;;10.93;5.00;;;;;;;15.66;56.52;100737.59;5124814;28;20438;-77
2022/05/14 04:55:30;;;;;;;13.53;5.27;;;;;;;16.02;55.32;100734.72;5122852;28;20466;-74
2022/05/14 04:57:58;;;;;;;7.37;4.90;;;;;;;16.25;54.60;100739.47;5123806;28;20461;-75
2022/05/14 05:00:25;;;;;;;11.63;5.20;;;;;;;16.23;54.52;100744.22;5123904;28;20449;-76
2022/05/14 05:05:36;;;;;;;9.37;5.33;;;;;;;15.80;55.03;100755.06;5123073;28;20491;-73
2022/05/14 05:08:05;;;;;;;8.40;5.10;;;;;;;16.44;53.88;100760.78;5118408;28;20442;-74
2022/05/14 05:10:31;;;;;;;10.27;5.23;;;;;;;17.04;52.38;100759.63;5107251;28;20466;-73
2022/05/14 05:12:58;;;;;;;11.73;4.97;;;;;;;18.19;49.26;100767.41;5123033;28;20546;-73
2022/05/14 05:15:25;;;;;;;9.93;4.63;;;;;;;17.39;50.18;100762.94;5117428;28;20442;-73
2022/05/14 05:17:52;;;;;;;12.50;4.50;;;;;;;18.27;48.36;100752.16;5123809;28;20457;-73
2022/05/14 05:20:19;;;;;;;8.37;4.63;;;;;;;16.85;51.41;100763.53;5118969;28;20845;-71
2022/05/14 05:22:47;;;;;;;11.30;4.40;;;;;;;17.29;50.78;100768.56;5122031;28;20501;-72
2022/05/14 05:25:15;;;;;;;13.70;4.80;;;;;;;17.90;48.62;100768.06;5106446;28;20462;-71
2022/05/14 05:27:42;;;;;;;8.73;4.37;;;;;;;18.03;48.74;100771.03;5102359;28;20451;-71
2022/05/14 05:30:10;;;;;;;10.67;5.23;;;;;;;17.70;49.45;100767.59;5107947;28;20446;-72
2022/05/14 05:32:37;;;;;;;7.17;4.37;;;;;;;17.17;51.08;100771.78;5123376;28;20446;-71
2022/05/14 05:35:04;;;;;;;9.00;5.20;;;;;;;17.28;50.49;100768.72;5113027;28;20442;-72
2022/05/14 05:37:31;;;;;;;11.60;4.37;;;;;;;17.40;50.42;100772.75;5119088;28;20508;-71
2022/05/14 05:39:58;;;;;;;10.83;5.23;;;;;;;17.31;50.28;100774.63;5123171;28;20486;-76
2022/05/14 05:42:26;;;;;;;10.40;4.50;;;;;;;18.35;47.96;100766.47;5117814;28;20786;-74
2022/05/14 05:44:53;;;;;;;9.83;4.53;;;;;;;18.78;46.93;100763.28;5117060;28;20546;-73
2022/05/14 05:47:19;;;;;;;7.87;3.87;;;;;;;18.28;47.59;100767.34;5107251;28;20467;-75
2022/05/14 05:49:52;;;;;;;9.63;4.80;;;;;;;18.03;47.96;100781.03;5122049;28;20522;-75
2022/05/14 05:52:19;;;;;;;10.53;4.60;;;;;;;18.91;46.78;100787.09;5121146;27;20502;-77
2022/05/14 05:57:36;;;;;;;9.03;3.93;;;;;;;20.06;43.13;100792.16;5081438;28;20494;-74
2022/05/14 06:00:06;;;;;;;9.43;4.57;;;;;;;18.51;47.08;100789.88;5087557;28;20451;-74
2022/05/14 06:02:33;;;;;;;12.33;4.90;;;;;;;18.59;46.76;100794.38;5118449;28;20506;-75
2022/05/14 06:04:59;;;;;;;8.53;4.43;;;;;;;19.00;46.39;100788.69;5116929;28;20439;-73
2022/05/14 06:07:26;;;;;;;10.07;4.47;;;;;;;19.02;46.32;100793.94;5120971;28;20482;-74
2022/05/14 06:09:52;;;;;;;6.03;3.93;;;;;;;18.80;46.10;100800.00;5102043;28;20481;-73
2022/05/14 06:12:20;;;;;;;10.20;4.80;;;;;;;19.85;44.41;100800.22;5098231;28;20467;-73
2022/05/14 06:14:48;;;;;;;9.63;4.87;;;;;;;19.09;46.28;100805.72;5091437;28;20452;-76
2022/05/14 06:17:15;;;;;;;8.30;4.60;;;;;;;18.16;48.07;100794.81;5089800;28;20471;-73
2022/05/14 06:19:42;;;;;;;15.53;5.83;;;;;;;19.72;44.87;100793.56;5091376;28;20446;-74
2022/05/14 06:22:09;;;;;;;6.43;4.67;;;;;;;19.82;44.95;100793.28;5109172;28;20483;-76
2022/05/14 06:24:37;;;;;;;9.27;5.03;;;;;;;20.88;42.40;100801.00;5109260;28;20457;-77
2022/05/14 06:27:05;;;;;;;14.43;4.93;;;;;;;21.08;41.67;100801.19;5100140;28;21002;-77
2022/05/14 06:29:32;;;;;;;9.53;5.30;;;;;;;20.34;43.96;100802.28;5118565;28;20452;-74
2022/05/14 06:32:00;;;;;;;9.20;5.50;;;;;;;19.98;45.06;100794.13;5092912;28;20494;-72
2022/05/14 06:34:27;;;;;;;15.70;6.30;;;;;;;19.72;44.90;100801.69;5102045;28;20431;-75
2022/05/14 06:36:54;;;;;;;12.00;5.50;;;;;;;19.91;44.92;100797.63;5100932;28;20526;-77
2022/05/14 06:39:21;;;;;;;11.63;5.93;;;;;;;21.01;42.27;100794.84;5101369;28;20474;-75
2022/05/14 06:41:48;;;;;;;10.17;5.60;;;;;;;21.67;40.64;100799.97;5092016;28;20734;-73
2022/05/14 06:44:16;;;;;;;10.43;5.60;;;;;;;21.14;42.25;100800.38;5090383;28;20470;-77
2022/05/14 06:46:43;;;;;;;11.47;6.00;;;;;;;20.96;42.51;100808.19;5089404;28;20494;-75
2022/05/14 06:49:12;;;;;;;15.57;6.33;;;;;;;19.88;45.33;100799.88;5095167;28;20435;-68
2022/05/14 06:51:39;;;;;;;14.53;6.30;;;;;;;21.04;42.91;100799.91;5089611;28;20475;-68
2022/05/14 06:54:08;;;;;;;8.87;6.03;;;;;;;20.88;43.05;100801.84;5083416;28;20466;-68
2022/05/14 06:56:36;;;;;;;12.53;6.47;;;;;;;21.92;41.78;100815.78;5082173;28;20495;-68
2022/05/14 06:59:03;;;;;;;13.73;5.77;;;;;;;22.52;40.65;100805.19;5084065;28;20470;-68
2022/05/14 07:01:30;;;;;;;13.50;6.47;;;;;;;20.38;44.74;100813.63;5090942;28;20952;-68
2022/05/14 07:06:54;;;;;;;20.30;7.90;;;;;;;20.95;43.60;100815.47;5042075;28;20463;-69
2022/05/14 07:09:23;;;;;;;11.80;5.93;;;;;;;22.19;41.40;100817.59;5091991;28;20475;-68
2022/05/14 07:11:53;;;;;;;12.23;5.50;;;;;;;23.26;38.86;100817.88;5093590;28;20806;-68
2022/05/14 07:14:24;;;;;;;18.07;6.60;;;;;;;23.08;39.08;100818.47;5092870;28;20428;-68
2022/05/14 07:16:52;;;;;;;14.93;6.73;;;;;;;20.86;43.16;100817.50;5098905;28;20482;-69
2022/05/14 07:19:19;;;;;;;10.63;5.73;;;;;;;21.20;42.83;100825.97;5099674;28;20439;-69
2022/05/14 07:21:48;;;;;;;14.27;6.97;;;;;;;22.21;41.21;100833.75;5098808;28;21007;-67
2022/05/14 07:24:17;;;;;;;13.77;6.67;;;;;;;21.98;41.81;100826.72;5099682;28;20442;-72
2022/05/14 07:26:45;;;;;;;12.10;6.40;;;;;;;21.92;41.58;100826.69;5097897;28;20475;-71
2022/05/14 07:29:14;;;;;;;13.43;6.60;;;;;;;23.87;37.78;100837.75;5092960;28;20454;-71
2022/05/14 07:31:41;;;;;;;12.60;6.53;;;;;;;24.48;36.36;100820.06;5092177;28;20477;-72
2022/05/14 07:34:08;;;;;;;13.50;6.83;;;;;;;24.55;36.56;100823.63;5099643;28;20446;-73
2022/05/14 07:36:38;;;;;;;12.93;6.40;;;;;;;24.00;37.59;100831.41;5101097;28;20457;-72
2022/05/14 07:39:06;;;;;;;13.73;7.50;;;;;;;25.14;35.76;100824.25;5083257;28;20468;-71
2022/05/14 07:41:36;;;;;;;16.43;7.40;;;;;;;22.91;39.36;100812.59;5102422;28;20494;-71
2022/05/14 07:44:05;;;;;;;14.80;7.20;;;;;;;21.50;42.48;100828.53;5102641;28;20435;-70
2022/05/14 07:46:34;;;;;;;12.00;6.70;;;;;;;22.32;41.19;100819.56;5100874;28;20471;-71
2022/05/14 07:49:01;;;;;;;13.30;7.70;;;;;;;23.94;38.18;100830.38;5094274;28;20446;-71
2022/05/14 07:51:29;;;;;;;12.33;6.93;;;;;;;23.14;39.08;100825.00;5086216;28;20467;-72
2022/05/14 07:53:56;;;;;;;12.87;7.00;;;;;;;22.75;40.54;100834.78;5085587;28;20534;-72
2022/05/14 07:56:23;;;;;;;12.73;7.17;;;;;;;22.24;41.36;100829.75;5100923;28;20470;-72
2022/05/14 07:58:51;;;;;;;14.23;7.67;;;;;;;21.91;42.37;100835.91;5100149;28;20457;-72
2022/05/14 08:01:18;;;;;;;15.50;6.67;;;;;;;24.24;38.13;100832.56;5101189;28;20481;-71
2022/05/14 08:03:47;;;;;;;14.23;7.07;;;;;;;25.19;36.08;100821.69;5101081;28;20510;-74
2022/05/14 08:06:15;;;;;;;12.67;7.20;;;;;;;24.99;35.28;100829.22;5080007;28;20475;-73
2022/05/14 08:08:42;;;;;;;11.77;6.60;;;;;;;25.20;35.47;100830.72;5098470;28;20443;-73
2022/05/14 08:11:10;;;;;;;17.20;6.63;;;;;;;24.91;36.33;100840.41;5073344;28;20456;-69
2022/05/14 08:13:40;;;;;;;16.30;7.40;;;;;;;24.89;36.78;100842.53;5094611;28;20952;-70
2022/05/14 08:16:08;;;;;;;11.20;7.33;;;;;;;25.72;35.17;100835.97;5094291;28;20482;-70
2022/05/14 08:18:36;;;;;;;15.50;7.07;;;;;;;25.70;35.01;100832.63;5088583;28;20439;-71
2022/05/14 08:26:27;;;;;;;19.20;7.37;;;;;;;24.08;38.84;100838.50;5107937;28;20528;-70
2022/05/14 08:28:54;;;;;;;15.63;7.70;;;;;;;24.10;37.75;100825.50;5100649;28;20449;-71
2022/05/14 08:31:22;;;;;;;19.40;6.97;;;;;;;23.72;39.69;100835.22;5089442;28;20505;-70
2022/05/14 08:33:49;;;;;;;14.17;7.27;;;;;;;24.33;37.95;100838.63;5100402;28;20485;-70
2022/05/14 08:36:16;;;;;;;15.17;7.20;;;;;;;26.11;34.90;100840.19;5099439;28;20561;-71
2022/05/14 08:38:42;;;;;;;21.13;7.20;;;;;;;26.98;33.02;100839.03;5101388;28;20460;-70
2022/05/14 08:41:10;;;;;;;10.83;6.40;;;;;;;27.47;32.89;100832.56;5113015;28;20494;-70
2022/05/14 08:43:43;;;;;;;14.43;7.03;;;;;;;26.92;33.75;100841.88;5099993;28;20483;-73
2022/05/14 08:46:10;;;;;;;18.00;6.60;;;;;;;27.70;32.70;100843.50;5099565;28;20477;-72
2022/05/14 08:48:39;;;;;;;13.67;7.50;;;;;;;24.93;36.28;100850.09;5097805;28;20488;-70
2022/05/14 08:51:09;;;;;;;12.83;6.60;;;;;;;26.73;33.60;100839.19;5104224;28;20474;-70
2022/05/14 08:53:38;;;;;;;14.13;7.43;;;;;;;24.43;36.75;100826.16;5091582;28;20455;-68
2022/05/14 08:56:29;;;;;;;16.93;7.60;;;;;;;25.43;35.24;100843.81;5095948;28;20479;-71
2022/05/14 08:59:08;;;;;;;18.50;8.27;;;;;;;24.67;37.06;100842.03;5094659;28;21042;-69
2022/05/14 09:01:37;;;;;;;14.00;8.23;;;;;;;24.67;37.39;100837.44;5100888;28;20470;-71
2022/05/14 09:04:06;;;;;;;14.00;7.73;;;;;;;25.76;35.73;100831.69;5100278;28;20515;-69
2022/05/14 09:06:37;;;;;;;13.27;6.93;;;;;;;26.87;32.20;100834.31;5101393;28;20491;-69
2022/05/14 09:09:14;;;;;;;15.03;6.53;;;;;;;26.03;35.00;100840.50;5100115;28;20462;-70
2022/05/14 09:11:43;;;;;;;15.43;7.40;;;;;;;26.97;33.45;100833.75;5087504;28;20576;-69
2022/05/14 09:14:20;;;;;;;11.97;6.43;;;;;;;27.37;32.38;100833.13;5100980;28;20939;-69
2022/05/14 09:16:50;;;;;;;14.33;7.50;;;;;;;27.03;32.16;100828.19;5099473;28;20643;-68
2022/05/14 09:19:20;;;;;;;15.07;6.53;;;;;;;27.97;30.98;100832.06;5102633;28;20462;-70
2022/05/14 09:21:52;;;;;;;16.00;6.83;;;;;;;28.37;30.36;100839.47;5099261;28;21130;-70
2022/05/14 09:24:24;;;;;;;15.27;6.13;;;;;;;27.51;32.31;100834.56;5097867;28;20449;-70
2022/05/14 09:26:51;;;;;;;17.13;5.90;;;;;;;27.82;32.21;100835.25;5098220;28;20490;-69
2022/05/14 09:29:25;;;;;;;12.20;5.97;;;;;;;25.16;35.84;100835.81;5081723;28;20464;-69
2022/05/14 09:31:59;;;;;;;18.87;5.93;;;;;;;27.02;32.66;100837.47;5090593;28;20478;-69
2022/05/14 09:34:29;;;;;;;11.37;6.27;;;;;;;25.82;33.31;100840.94;5112872;28;20427;-69
2022/05/14 09:37:01;;;;;;;14.07;5.47;;;;;;;26.32;32.84;100838.03;5099554;28;20501;-70
2022/05/14 09:39:29;;;;;;;15.37;5.90;;;;;;;25.92;34.57;100828.38;5090033;28;20802;-70
2022/05/14 09:42:01;;;;;;;16.27;6.13;;;;;;;25.16;35.33;100824.03;5107120;28;21041;-69
2022/05/14 09:44:29;;;;;;;15.33;5.70;;;;;;;26.17;33.94;100835.69;5120163;28;20475;-69
2022/05/14 09:47:06;;;;;;;14.90;6.57;;;;;;;25.02;35.76;100836.16;5116863;28;20530;-69
2022/05/14 09:49:39;;;;;;;13.57;6.53;;;;;;;24.93;36.20;100830.09;5118814;28;20465;-70
2022/05/14 09:52:08;;;;;;;12.90;5.67;;;;;;;26.31;33.77;100830.88;5113854;28;20470;-70
2022/05/14 09:54:41;;;;;;;12.47;5.97;;;;;;;27.06;32.44;100826.84;5120132;28;20449;-69
2022/05/14 09:57:38;;;;;;;16.97;5.33;;;;;;;25.18;35.09;100830.94;5117969;28;20480;-69
2022/05/14 10:00:14;;;;;;;12.07;5.30;;;;;;;24.85;35.33;100833.94;5099543;28;20454;-70
2022/05/14 10:03:04;;;;;;;15.07;4.80;;;;;;;25.52;35.23;100831.53;5112054;28;21254;-70
2022/05/14 10:05:49;;;;;;;11.17;5.27;;;;;;;27.71;30.46;100828.72;5103489;28;20830;-70
2022/05/14 10:08:21;;;;;;;9.30;5.80;;;;;;;29.03;28.77;100834.38;5120910;28;20450;-70
2022/05/14 10:10:54;;;;;;;13.27;5.73;;;;;;;27.45;31.62;100834.66;5117478;28;20466;-70
2022/05/14 10:13:26;;;;;;;14.47;5.83;;;;;;;27.24;31.32;100820.44;5119392;28;20446;-70
2022/05/14 10:15:58;;;;;;;15.83;5.40;;;;;;;26.37;32.11;100840.06;5119690;28;20474;-71
2022/05/14 10:18:37;;;;;;;13.43;4.97;;;;;;;26.84;31.53;100834.81;5111781;28;20806;-69
2022/05/14 10:21:08;;;;;;;13.60;4.43;;;;;;;28.29;29.25;100829.69;5111342;28;20995;-70
2022/05/14 10:27:15;;;;;;;11.17;5.30;;;;;;;23.73;36.51;100842.38;5104937;28;20503;-70
2022/05/14 10:29:49;;;;;;;13.00;5.73;;;;;;;25.52;34.02;100844.41;5118728;28;20450;-70
2022/05/14 10:32:18;;;;;;;12.03;5.37;;;;;;;26.56;32.73;100827.16;5114620;28;20499;-70
2022/05/14 10:34:48;;;;;;;12.47;5.90;;;;;;;25.17;33.69;100834.75;5107495;28;20444;-70
2022/05/14 10:37:22;;;;;;;13.23;4.90;;;;;;;26.74;33.01;100834.56;5108004;28;20470;-70
2022/05/14 10:39:56;;;;;;;14.03;5.33;;;;;;;25.32;34.29;100850.88;5118259;28;20481;-71
2022/05/14 10:42:31;;;;;;;11.47;5.00;;;;;;;25.86;33.50;100840.22;5110396;28;21013;-70
2022/05/14 10:45:03;;;;;;;11.87;6.27;;;;;;;25.27;34.42;100838.91;5109914;28;20422;-71
2022/05/14 10:47:32;;;;;;;12.27;5.43;;;;;;;28.30;29.87;100844.28;5117723;28;20648;-72
2022/05/14 10:50:01;;;;;;;10.60;5.30;;;;;;;28.90;29.19;100840.19;5108829;28;20542;-71
2022/05/14 10:52:30;;;;;;;15.77;5.97;;;;;;;24.83;34.64;100838.81;5079576;28;20991;-71
2022/05/14 10:54:58;;;;;;;12.17;5.50;;;;;;;26.42;32.98;100843.81;5090561;28;20608;-70
2022/05/14 10:57:42;;;;;;;17.47;5.53;;;;;;;26.46;32.74;100844.19;5114018;28;20477;-70
2022/05/14 11:00:38;;;;;;;14.30;4.90;;;;;;;25.12;33.03;100831.84;5115785;27;20462;-70
2022/05/14 11:03:10;;;;;;;10.90;4.43;;;;;;;24.73;33.78;100833.81;5116171;28;20482;-70
2022/05/14 11:05:50;;;;;;;13.70;5.00;;;;;;;25.09;34.24;100835.03;5100415;28;20550;-70
2022/05/14 11:08:30;;;;;;;10.50;4.47;;;;;;;25.27;33.87;100839.75;5118010;28;20457;-70
2022/05/14 11:11:05;;;;;;;15.30;5.00;;;;;;;24.74;35.24;100838.22;5115693;28;20461;-70
2022/05/14 11:13:32;;;;;;;10.80;4.43;;;;;;;26.84;31.72;100841.13;5110604;28;20455;-70
2022/05/14 11:16:03;;;;;;;9.00;4.67;;;;;;;27.70;29.54;100838.00;5118182;28;20470;-70
2022/05/14 11:18:30;;;;;;;13.60;4.23;;;;;;;27.92;28.35;100840.19;5115059;28;20447;-70
2022/05/14 11:20:59;;;;;;;11.53;4.10;;;;;;;27.98;28.18;100840.06;5107216;28;20474;-70
2022/05/14 11:23:28;;;;;;;11.43;4.43;;;;;;;27.28;28.95;100840.88;5109572;28;20526;-70
2022/05/14 11:26:09;;;;;;;8.17;4.03;;;;;;;27.79;27.41;100833.84;5116943;28;20469;-70
2022/05/14 11:28:55;;;;;;;8.97;3.70;;;;;;;25.40;31.70;100841.53;5107724;28;20450;-71
2022/05/14 11:31:24;;;;;;;9.00;4.67;;;;;;;24.35;33.14;100842.81;5066659;28;20494;-71
2022/05/14 11:33:52;;;;;;;8.93;4.23;;;;;;;25.58;31.67;100829.78;5117694;28;20442;-71
2022/05/14 11:36:26;;;;;;;9.17;4.37;;;;;;;27.15;28.33;100832.84;5114206;28;20471;-68
2022/05/14 11:39:09;;;;;;;11.40;3.90;;;;;;;28.14;27.65;100834.84;5108364;28;20547;-71
2022/05/14 11:41:37;;;;;;;9.50;3.73;;;;;;;26.29;30.19;100839.31;5107788;28;20569;-70
2022/05/14 11:44:06;;;;;;;12.50;4.03;;;;;;;26.80;28.52;100828.09;5097087;28;20660;-70
2022/05/14 11:46:36;;;;;;;11.97;4.10;;;;;;;27.00;28.62;100827.81;5097685;28;20554;-70
2022/05/14 11:49:07;;;;;;;9.10;3.07;;;;;;;26.79;29.12;100838.25;5094976;28;20439;-70